sensor_id;sensor_type;location;lat;lon;timestamp;P1;durP1;ratioP1;P2;durP2;ratioP2
45842;SDS011;31563;51.744;8.252;2024-03-07T00:00:11;3.40;;;3.10;;
45842;SDS011;31563;51.744;8.252;2024-03-07T00:02:45;3.97;;;3.65;;
45842;SDS011;31563;51.744;8.252;2024-03-07T00:05:16;3.30;;;3.00;;
45842;SDS011;31563;51.744;8.252;2024-03-07T00:07:44;3.78;;;3.42;;
45842;SDS011;31563;51.744;8.252;2024-03-07T00:10:13;3.85;;;3.42;;
45842;SDS011;31563;51.744;8.252;2024-03-07T00:12:43;3.38;;;3.08;;
45842;SDS011;31563;51.744;8.252;2024-03-07T00:15:12;3.90;;;3.50;;
45842;SDS011;31563;51.744;8.252;2024-03-07T00:17:41;3.78;;;3.35;;
45842;SDS011;31563;51.744;8.252;2024-03-07T00:20:09;3.58;;;3.25;;
45842;SDS011;31563;51.744;8.252;2024-03-07T00:22:42;3.60;;;3.30;;
45842;SDS011;31563;51.744;8.252;2024-03-07T00:25:10;3.85;;;3.53;;
45842;SDS011;31563;51.744;8.252;2024-03-07T00:27:41;3.53;;;3.22;;
45842;SDS011;31563;51.744;8.252;2024-03-07T00:30:13;3.42;;;3.13;;
45842;SDS011;31563;51.744;8.252;2024-03-07T00:32:45;3.65;;;3.35;;
45842;SDS011;31563;51.744;8.252;2024-03-07T00:35:14;3.58;;;3.28;;
45842;SDS011;31563;51.744;8.252;2024-03-07T00:37:42;3.70;;;3.40;;
45842;SDS011;31563;51.744;8.252;2024-03-07T00:40:11;3.83;;;3.42;;
45842;SDS011;31563;51.744;8.252;2024-03-07T00:42:38;3.78;;;3.42;;
45842;SDS011;31563;51.744;8.252;2024-03-07T00:45:06;3.60;;;3.30;;
45842;SDS011;31563;51.744;8.252;2024-03-07T00:47:39;3.80;;;3.50;;
45842;SDS011;31563;51.744;8.252;2024-03-07T00:50:07;4.07;;;3.67;;
45842;SDS011;31563;51.744;8.252;2024-03-07T00:52:36;3.87;;;3.57;;
45842;SDS011;31563;51.744;8.252;2024-03-07T00:55:05;4.10;;;3.70;;
45842;SDS011;31563;51.744;8.252;2024-03-07T00:57:35;3.83;;;3.53;;
45842;SDS011;31563;51.744;8.252;2024-03-07T01:00:03;3.78;;;3.40;;
45842;SDS011;31563;51.744;8.252;2024-03-07T01:02:39;3.67;;;3.38;;
45842;SDS011;31563;51.744;8.252;2024-03-07T01:05:10;3.65;;;3.30;;
45842;SDS011;31563;51.744;8.252;2024-03-07T01:07:39;4.20;;;3.80;;
45842;SDS011;31563;51.744;8.252;2024-03-07T01:10:09;3.83;;;3.42;;
45842;SDS011;31563;51.744;8.252;2024-03-07T01:12:37;3.50;;;3.20;;
45842;SDS011;31563;51.744;8.252;2024-03-07T01:15:06;3.42;;;3.13;;
45842;SDS011;31563;51.744;8.252;2024-03-07T01:17:35;3.58;;;3.28;;
45842;SDS011;31563;51.744;8.252;2024-03-07T01:20:05;4.13;;;3.60;;
45842;SDS011;31563;51.744;8.252;2024-03-07T01:22:35;3.67;;;3.38;;
45842;SDS011;31563;51.744;8.252;2024-03-07T01:25:04;3.53;;;3.22;;
45842;SDS011;31563;51.744;8.252;2024-03-07T01:27:32;3.80;;;3.50;;
45842;SDS011;31563;51.744;8.252;2024-03-07T01:30:01;3.65;;;3.35;;
45842;SDS011;31563;51.744;8.252;2024-03-07T01:32:29;3.50;;;3.20;;
45842;SDS011;31563;51.744;8.252;2024-03-07T01:34:58;3.58;;;3.28;;
45842;SDS011;31563;51.744;8.252;2024-03-07T01:37:27;3.70;;;3.40;;
45842;SDS011;31563;51.744;8.252;2024-03-07T01:39:55;3.65;;;3.35;;
45842;SDS011;31563;51.744;8.252;2024-03-07T01:42:24;3.88;;;3.58;;
45842;SDS011;31563;51.744;8.252;2024-03-07T01:44:52;4.15;;;3.45;;
45842;SDS011;31563;51.744;8.252;2024-03-07T01:47:20;4.00;;;3.67;;
45842;SDS011;31563;51.744;8.252;2024-03-07T01:49:48;4.03;;;3.63;;
45842;SDS011;31563;51.744;8.252;2024-03-07T01:52:17;4.05;;;3.53;;
45842;SDS011;31563;51.744;8.252;2024-03-07T01:54:47;4.57;;;4.18;;
45842;SDS011;31563;51.744;8.252;2024-03-07T01:57:16;3.65;;;3.35;;
45842;SDS011;31563;51.744;8.252;2024-03-07T01:59:45;3.97;;;3.45;;
45842;SDS011;31563;51.744;8.252;2024-03-07T02:02:17;3.85;;;3.55;;
45842;SDS011;31563;51.744;8.252;2024-03-07T02:04:45;3.75;;;3.45;;
45842;SDS011;31563;51.744;8.252;2024-03-07T02:07:13;3.92;;;3.63;;
45842;SDS011;31563;51.744;8.252;2024-03-07T02:09:41;4.22;;;3.92;;
45842;SDS011;31563;51.744;8.252;2024-03-07T02:12:11;3.78;;;3.47;;
45842;SDS011;31563;51.744;8.252;2024-03-07T02:14:39;3.92;;;3.63;;
45842;SDS011;31563;51.744;8.252;2024-03-07T02:17:07;3.53;;;3.22;;
45842;SDS011;31563;51.744;8.252;2024-03-07T02:19:36;3.70;;;3.40;;
45842;SDS011;31563;51.744;8.252;2024-03-07T02:22:05;3.83;;;3.53;;
45842;SDS011;31563;51.744;8.252;2024-03-07T02:24:33;3.65;;;3.35;;
45842;SDS011;31563;51.744;8.252;2024-03-07T02:27:01;3.88;;;3.47;;
45842;SDS011;31563;51.744;8.252;2024-03-07T02:29:29;3.63;;;3.33;;
45842;SDS011;31563;51.744;8.252;2024-03-07T02:31:58;4.22;;;3.83;;
45842;SDS011;31563;51.744;8.252;2024-03-07T02:34:26;3.58;;;3.28;;
45842;SDS011;31563;51.744;8.252;2024-03-07T02:36:54;4.05;;;3.67;;
45842;SDS011;31563;51.744;8.252;2024-03-07T02:39:24;3.95;;;3.60;;
45842;SDS011;31563;51.744;8.252;2024-03-07T02:41:52;4.43;;;3.75;;
45842;SDS011;31563;51.744;8.252;2024-03-07T02:44:20;3.55;;;3.25;;
45842;SDS011;31563;51.744;8.252;2024-03-07T02:46:49;3.60;;;3.30;;
45842;SDS011;31563;51.744;8.252;2024-03-07T02:49:17;3.67;;;3.38;;
45842;SDS011;31563;51.744;8.252;2024-03-07T02:51:47;3.90;;;3.58;;
45842;SDS011;31563;51.744;8.252;2024-03-07T02:54:16;3.88;;;3.58;;
45842;SDS011;31563;51.744;8.252;2024-03-07T02:56:45;3.80;;;3.50;;
45842;SDS011;31563;51.744;8.252;2024-03-07T02:59:14;3.92;;;3.50;;
45842;SDS011;31563;51.744;8.252;2024-03-07T03:01:43;4.10;;;3.70;;
45842;SDS011;31563;51.744;8.252;2024-03-07T03:04:11;4.38;;;3.80;;
45842;SDS011;31563;51.744;8.252;2024-03-07T03:06:39;4.10;;;3.80;;
45842;SDS011;31563;51.744;8.252;2024-03-07T03:09:07;4.22;;;3.40;;
45842;SDS011;31563;51.744;8.252;2024-03-07T03:11:39;3.60;;;3.30;;
45842;SDS011;31563;51.744;8.252;2024-03-07T03:14:09;4.03;;;3.72;;
45842;SDS011;31563;51.744;8.252;2024-03-07T03:16:40;3.80;;;3.40;;
45842;SDS011;31563;51.744;8.252;2024-03-07T03:19:14;3.80;;;3.50;;
45842;SDS011;31563;51.744;8.252;2024-03-07T03:21:42;3.60;;;3.30;;
45842;SDS011;31563;51.744;8.252;2024-03-07T03:24:10;3.75;;;3.35;;
45842;SDS011;31563;51.744;8.252;2024-03-07T03:26:38;3.35;;;3.05;;
45842;SDS011;31563;51.744;8.252;2024-03-07T03:29:10;3.63;;;3.33;;
45842;SDS011;31563;51.744;8.252;2024-03-07T03:31:39;3.70;;;3.40;;
45842;SDS011;31563;51.744;8.252;2024-03-07T03:34:07;3.78;;;3.47;;
45842;SDS011;31563;51.744;8.252;2024-03-07T03:36:36;3.60;;;3.30;;
45842;SDS011;31563;51.744;8.252;2024-03-07T03:39:04;3.85;;;3.55;;
45842;SDS011;31563;51.744;8.252;2024-03-07T03:41:33;4.07;;;3.77;;
45842;SDS011;31563;51.744;8.252;2024-03-07T03:44:02;3.50;;;3.20;;
45842;SDS011;31563;51.744;8.252;2024-03-07T03:46:31;3.67;;;3.20;;
45842;SDS011;31563;51.744;8.252;2024-03-07T03:48:59;3.63;;;3.33;;
45842;SDS011;31563;51.744;8.252;2024-03-07T03:51:27;4.13;;;3.72;;
45842;SDS011;31563;51.744;8.252;2024-03-07T03:53:56;3.53;;;3.22;;
45842;SDS011;31563;51.744;8.252;2024-03-07T03:56:24;3.72;;;3.40;;
45842;SDS011;31563;51.744;8.252;2024-03-07T03:58:52;4.10;;;3.80;;
45842;SDS011;31563;51.744;8.252;2024-03-07T04:01:20;3.88;;;3.58;;
45842;SDS011;31563;51.744;8.252;2024-03-07T04:03:51;3.83;;;3.53;;
45842;SDS011;31563;51.744;8.252;2024-03-07T04:06:19;4.15;;;3.75;;
45842;SDS011;31563;51.744;8.252;2024-03-07T04:08:48;3.75;;;3.45;;
45842;SDS011;31563;51.744;8.252;2024-03-07T04:11:16;3.97;;;3.67;;
45842;SDS011;31563;51.744;8.252;2024-03-07T04:13:45;4.43;;;4.03;;
45842;SDS011;31563;51.744;8.252;2024-03-07T04:16:14;4.18;;;3.78;;
45842;SDS011;31563;51.744;8.252;2024-03-07T04:18:43;3.92;;;3.63;;
45842;SDS011;31563;51.744;8.252;2024-03-07T04:21:12;3.88;;;3.58;;
45842;SDS011;31563;51.744;8.252;2024-03-07T04:23:40;4.20;;;3.85;;
45842;SDS011;31563;51.744;8.252;2024-03-07T04:26:08;3.70;;;3.40;;
45842;SDS011;31563;51.744;8.252;2024-03-07T04:28:36;4.15;;;3.78;;
45842;SDS011;31563;51.744;8.252;2024-03-07T04:31:04;3.97;;;3.63;;
45842;SDS011;31563;51.744;8.252;2024-03-07T04:33:32;4.05;;;3.70;;
45842;SDS011;31563;51.744;8.252;2024-03-07T04:36:01;4.30;;;3.90;;
45842;SDS011;31563;51.744;8.252;2024-03-07T04:38:31;3.75;;;3.42;;
45842;SDS011;31563;51.744;8.252;2024-03-07T04:40:59;3.60;;;3.30;;
45842;SDS011;31563;51.744;8.252;2024-03-07T04:43:27;3.80;;;3.50;;
45842;SDS011;31563;51.744;8.252;2024-03-07T04:45:55;3.92;;;3.50;;
45842;SDS011;31563;51.744;8.252;2024-03-07T04:48:23;3.13;;;2.92;;
45842;SDS011;31563;51.744;8.252;2024-03-07T04:50:51;3.90;;;3.60;;
45842;SDS011;31563;51.744;8.252;2024-03-07T04:53:19;3.90;;;3.60;;
45842;SDS011;31563;51.744;8.252;2024-03-07T04:55:49;3.67;;;3.38;;
45842;SDS011;31563;51.744;8.252;2024-03-07T04:58:17;3.45;;;3.00;;
45842;SDS011;31563;51.744;8.252;2024-03-07T05:00:45;3.33;;;3.03;;
45842;SDS011;31563;51.744;8.252;2024-03-07T05:03:13;3.40;;;3.10;;
45842;SDS011;31563;51.744;8.252;2024-03-07T05:05:41;3.22;;;3.00;;
45842;SDS011;31563;51.744;8.252;2024-03-07T05:08:09;3.22;;;3.00;;
45842;SDS011;31563;51.744;8.252;2024-03-07T05:10:38;3.40;;;3.10;;
45842;SDS011;31563;51.744;8.252;2024-03-07T05:13:09;3.50;;;3.20;;
45842;SDS011;31563;51.744;8.252;2024-03-07T05:15:37;3.22;;;2.92;;
45842;SDS011;31563;51.744;8.252;2024-03-07T05:18:06;3.35;;;3.05;;
45842;SDS011;31563;51.744;8.252;2024-03-07T05:20:34;3.25;;;2.95;;
45842;SDS011;31563;51.744;8.252;2024-03-07T05:23:03;3.45;;;3.15;;
45842;SDS011;31563;51.744;8.252;2024-03-07T05:25:31;3.22;;;2.92;;
45842;SDS011;31563;51.744;8.252;2024-03-07T05:28:00;3.20;;;2.90;;
45842;SDS011;31563;51.744;8.252;2024-03-07T05:30:30;3.10;;;2.80;;
45842;SDS011;31563;51.744;8.252;2024-03-07T05:32:58;3.22;;;2.92;;
45842;SDS011;31563;51.744;8.252;2024-03-07T05:35:28;3.63;;;3.33;;
45842;SDS011;31563;51.744;8.252;2024-03-07T05:37:57;3.30;;;3.03;;
45842;SDS011;31563;51.744;8.252;2024-03-07T05:40:26;3.07;;;2.77;;
45842;SDS011;31563;51.744;8.252;2024-03-07T05:42:54;2.92;;;2.70;;
45842;SDS011;31563;51.744;8.252;2024-03-07T05:45:23;3.28;;;2.97;;
45842;SDS011;31563;51.744;8.252;2024-03-07T05:47:52;3.38;;;3.08;;
45842;SDS011;31563;51.744;8.252;2024-03-07T05:50:20;3.40;;;3.10;;
45842;SDS011;31563;51.744;8.252;2024-03-07T05:52:49;3.17;;;2.88;;
45842;SDS011;31563;51.744;8.252;2024-03-07T05:55:17;3.53;;;3.22;;
45842;SDS011;31563;51.744;8.252;2024-03-07T05:57:46;3.38;;;3.08;;
45842;SDS011;31563;51.744;8.252;2024-03-07T06:00:14;3.50;;;3.20;;
45842;SDS011;31563;51.744;8.252;2024-03-07T06:02:55;3.10;;;2.83;;
45842;SDS011;31563;51.744;8.252;2024-03-07T06:05:24;2.85;;;2.65;;
45842;SDS011;31563;51.744;8.252;2024-03-07T06:07:53;2.88;;;2.67;;
45842;SDS011;31563;51.744;8.252;2024-03-07T06:10:21;3.17;;;2.88;;
45842;SDS011;31563;51.744;8.252;2024-03-07T06:12:51;3.40;;;3.10;;
45842;SDS011;31563;51.744;8.252;2024-03-07T06:15:35;4.20;;;3.30;;
45842;SDS011;31563;51.744;8.252;2024-03-07T06:18:05;3.10;;;2.83;;
45842;SDS011;31563;51.744;8.252;2024-03-07T06:20:34;3.20;;;2.90;;
45842;SDS011;31563;51.744;8.252;2024-03-07T06:23:03;3.33;;;3.03;;
45842;SDS011;31563;51.744;8.252;2024-03-07T06:25:31;3.15;;;2.85;;
45842;SDS011;31563;51.744;8.252;2024-03-07T06:28:14;2.80;;;2.60;;
45842;SDS011;31563;51.744;8.252;2024-03-07T06:30:43;2.75;;;2.45;;
45842;SDS011;31563;51.744;8.252;2024-03-07T06:33:14;3.13;;;2.83;;
45842;SDS011;31563;51.744;8.252;2024-03-07T06:35:46;3.30;;;3.00;;
45842;SDS011;31563;51.744;8.252;2024-03-07T06:38:14;3.25;;;2.80;;
45842;SDS011;31563;51.744;8.252;2024-03-07T06:40:43;3.05;;;2.85;;
45842;SDS011;31563;51.744;8.252;2024-03-07T06:43:11;3.40;;;3.10;;
45842;SDS011;31563;51.744;8.252;2024-03-07T06:45:40;2.97;;;2.70;;
45842;SDS011;31563;51.744;8.252;2024-03-07T06:48:12;3.03;;;2.80;;
45842;SDS011;31563;51.744;8.252;2024-03-07T06:50:43;2.90;;;2.60;;
45842;SDS011;31563;51.744;8.252;2024-03-07T06:53:11;3.28;;;2.97;;
45842;SDS011;31563;51.744;8.252;2024-03-07T06:55:39;3.10;;;2.88;;
45842;SDS011;31563;51.744;8.252;2024-03-07T06:58:07;3.80;;;3.10;;
45842;SDS011;31563;51.744;8.252;2024-03-07T07:00:36;3.50;;;2.67;;
45842;SDS011;31563;51.744;8.252;2024-03-07T07:03:06;2.72;;;2.53;;
45842;SDS011;31563;51.744;8.252;2024-03-07T07:05:35;2.70;;;2.50;;
45842;SDS011;31563;51.744;8.252;2024-03-07T07:08:04;3.03;;;2.72;;
45842;SDS011;31563;51.744;8.252;2024-03-07T07:10:33;3.13;;;2.85;;
45842;SDS011;31563;51.744;8.252;2024-03-07T07:13:02;2.80;;;2.60;;
45842;SDS011;31563;51.744;8.252;2024-03-07T07:15:31;2.95;;;2.67;;
45842;SDS011;31563;51.744;8.252;2024-03-07T07:17:59;3.05;;;2.75;;
45842;SDS011;31563;51.744;8.252;2024-03-07T07:20:28;2.60;;;2.40;;
45842;SDS011;31563;51.744;8.252;2024-03-07T07:22:58;3.47;;;3.17;;
45842;SDS011;31563;51.744;8.252;2024-03-07T07:25:28;2.83;;;2.42;;
45842;SDS011;31563;51.744;8.252;2024-03-07T07:27:57;3.30;;;3.03;;
45842;SDS011;31563;51.744;8.252;2024-03-07T07:30:25;2.88;;;2.67;;
45842;SDS011;31563;51.744;8.252;2024-03-07T07:32:53;2.60;;;2.30;;
45842;SDS011;31563;51.744;8.252;2024-03-07T07:35:21;2.78;;;2.58;;
45842;SDS011;31563;51.744;8.252;2024-03-07T07:37:50;2.80;;;2.50;;
45842;SDS011;31563;51.744;8.252;2024-03-07T07:42:51;3.00;;;2.80;;
45842;SDS011;31563;51.744;8.252;2024-03-07T07:45:21;3.30;;;3.00;;
45842;SDS011;31563;51.744;8.252;2024-03-07T07:47:50;3.38;;;3.08;;
45842;SDS011;31563;51.744;8.252;2024-03-07T07:50:20;2.75;;;2.55;;
45842;SDS011;31563;51.744;8.252;2024-03-07T07:52:51;2.70;;;2.50;;
45842;SDS011;31563;51.744;8.252;2024-03-07T07:55:22;2.80;;;2.60;;
45842;SDS011;31563;51.744;8.252;2024-03-07T07:57:52;2.85;;;2.65;;
45842;SDS011;31563;51.744;8.252;2024-03-07T08:00:22;2.83;;;2.63;;
45842;SDS011;31563;51.744;8.252;2024-03-07T08:02:51;3.00;;;2.80;;
45842;SDS011;31563;51.744;8.252;2024-03-07T08:05:21;2.42;;;2.22;;
45842;SDS011;31563;51.744;8.252;2024-03-07T08:07:50;2.85;;;2.65;;
45842;SDS011;31563;51.744;8.252;2024-03-07T08:10:19;3.15;;;2.95;;
45842;SDS011;31563;51.744;8.252;2024-03-07T08:12:51;2.63;;;2.42;;
45842;SDS011;31563;51.744;8.252;2024-03-07T08:17:47;3.33;;;3.03;;
45842;SDS011;31563;51.744;8.252;2024-03-07T08:20:19;2.63;;;2.42;;
45842;SDS011;31563;51.744;8.252;2024-03-07T08:22:49;2.70;;;2.50;;
45842;SDS011;31563;51.744;8.252;2024-03-07T08:25:19;3.20;;;2.90;;
45842;SDS011;31563;51.744;8.252;2024-03-07T08:27:51;2.90;;;2.70;;
45842;SDS011;31563;51.744;8.252;2024-03-07T08:30:20;2.75;;;2.55;;
45842;SDS011;31563;51.744;8.252;2024-03-07T08:32:49;3.00;;;2.80;;
45842;SDS011;31563;51.744;8.252;2024-03-07T08:35:19;2.92;;;2.72;;
45842;SDS011;31563;51.744;8.252;2024-03-07T08:37:49;2.42;;;2.22;;
45842;SDS011;31563;51.744;8.252;2024-03-07T08:40:22;3.42;;;2.90;;
45842;SDS011;31563;51.744;8.252;2024-03-07T08:42:56;3.10;;;2.80;;
45842;SDS011;31563;51.744;8.252;2024-03-07T08:45:24;2.90;;;2.70;;
45842;SDS011;31563;51.744;8.252;2024-03-07T08:47:53;2.63;;;2.40;;
45842;SDS011;31563;51.744;8.252;2024-03-07T08:50:23;3.00;;;2.70;;
45842;SDS011;31563;51.744;8.252;2024-03-07T08:52:52;2.95;;;2.72;;
45842;SDS011;31563;51.744;8.252;2024-03-07T08:55:22;3.13;;;2.83;;
45842;SDS011;31563;51.744;8.252;2024-03-07T08:57:52;2.70;;;2.50;;
45842;SDS011;31563;51.744;8.252;2024-03-07T09:00:21;2.63;;;2.42;;
45842;SDS011;31563;51.744;8.252;2024-03-07T09:02:53;2.63;;;2.40;;
45842;SDS011;31563;51.744;8.252;2024-03-07T09:05:25;2.90;;;2.70;;
45842;SDS011;31563;51.744;8.252;2024-03-07T09:07:54;2.70;;;2.50;;
45842;SDS011;31563;51.744;8.252;2024-03-07T09:10:23;2.90;;;2.70;;
45842;SDS011;31563;51.744;8.252;2024-03-07T09:12:52;3.03;;;2.73;;
45842;SDS011;31563;51.744;8.252;2024-03-07T09:15:22;2.88;;;2.67;;
45842;SDS011;31563;51.744;8.252;2024-03-07T09:20:20;3.13;;;2.83;;
45842;SDS011;31563;51.744;8.252;2024-03-07T09:22:50;2.88;;;2.55;;
45842;SDS011;31563;51.744;8.252;2024-03-07T09:25:20;2.97;;;2.47;;
45842;SDS011;31563;51.744;8.252;2024-03-07T09:27:50;2.80;;;2.60;;
45842;SDS011;31563;51.744;8.252;2024-03-07T09:30:18;3.20;;;2.90;;
45842;SDS011;31563;51.744;8.252;2024-03-07T09:32:53;2.90;;;2.60;;
45842;SDS011;31563;51.744;8.252;2024-03-07T09:35:22;2.80;;;2.60;;
45842;SDS011;31563;51.744;8.252;2024-03-07T09:37:51;3.13;;;2.83;;
45842;SDS011;31563;51.744;8.252;2024-03-07T09:40:20;2.65;;;2.45;;
45842;SDS011;31563;51.744;8.252;2024-03-07T09:42:51;2.80;;;2.60;;
45842;SDS011;31563;51.744;8.252;2024-03-07T09:45:21;2.63;;;2.42;;
45842;SDS011;31563;51.744;8.252;2024-03-07T09:47:57;2.70;;;2.50;;
45842;SDS011;31563;51.744;8.252;2024-03-07T09:50:26;2.40;;;2.20;;
45842;SDS011;31563;51.744;8.252;2024-03-07T09:52:58;2.40;;;2.20;;
45842;SDS011;31563;51.744;8.252;2024-03-07T09:55:26;2.63;;;2.42;;
45842;SDS011;31563;51.744;8.252;2024-03-07T09:57:55;2.70;;;2.50;;
45842;SDS011;31563;51.744;8.252;2024-03-07T10:00:26;2.70;;;2.50;;
45842;SDS011;31563;51.744;8.252;2024-03-07T10:02:58;2.45;;;2.25;;
45842;SDS011;31563;51.744;8.252;2024-03-07T10:05:28;2.78;;;2.53;;
45842;SDS011;31563;51.744;8.252;2024-03-07T10:07:59;2.58;;;2.38;;
45842;SDS011;31563;51.744;8.252;2024-03-07T10:10:28;2.90;;;2.60;;
45842;SDS011;31563;51.744;8.252;2024-03-07T10:12:58;2.92;;;2.60;;
45842;SDS011;31563;51.744;8.252;2024-03-07T10:15:27;2.70;;;2.50;;
45842;SDS011;31563;51.744;8.252;2024-03-07T10:17:57;2.70;;;2.10;;
45842;SDS011;31563;51.744;8.252;2024-03-07T10:20:28;2.50;;;2.30;;
45842;SDS011;31563;51.744;8.252;2024-03-07T10:22:56;2.83;;;2.22;;
45842;SDS011;31563;51.744;8.252;2024-03-07T10:25:25;2.50;;;2.30;;
45842;SDS011;31563;51.744;8.252;2024-03-07T10:27:55;2.63;;;2.42;;
45842;SDS011;31563;51.744;8.252;2024-03-07T10:30:24;2.40;;;2.20;;
45842;SDS011;31563;51.744;8.252;2024-03-07T10:32:53;2.72;;;2.53;;
45842;SDS011;31563;51.744;8.252;2024-03-07T10:35:26;2.70;;;2.50;;
45842;SDS011;31563;51.744;8.252;2024-03-07T10:37:57;2.80;;;2.60;;
45842;SDS011;31563;51.744;8.252;2024-03-07T10:40:27;2.80;;;2.50;;
45842;SDS011;31563;51.744;8.252;2024-03-07T10:42:57;2.97;;;2.77;;
45842;SDS011;31563;51.744;8.252;2024-03-07T10:45:30;2.78;;;2.58;;
45842;SDS011;31563;51.744;8.252;2024-03-07T10:48:01;2.70;;;2.50;;
45842;SDS011;31563;51.744;8.252;2024-03-07T10:50:41;3.05;;;2.78;;
45842;SDS011;31563;51.744;8.252;2024-03-07T10:53:19;2.92;;;2.63;;
45842;SDS011;31563;51.744;8.252;2024-03-07T10:55:59;2.78;;;2.47;;
45842;SDS011;31563;51.744;8.252;2024-03-07T10:58:42;2.90;;;2.58;;
45842;SDS011;31563;51.744;8.252;2024-03-07T11:01:17;2.70;;;2.50;;
45842;SDS011;31563;51.744;8.252;2024-03-07T11:06:19;3.95;;;2.60;;
45842;SDS011;31563;51.744;8.252;2024-03-07T11:08:48;2.90;;;2.70;;
45842;SDS011;31563;51.744;8.252;2024-03-07T11:11:17;2.67;;;2.47;;
45842;SDS011;31563;51.744;8.252;2024-03-07T11:13:46;2.17;;;1.97;;
45842;SDS011;31563;51.744;8.252;2024-03-07T11:16:15;2.88;;;2.67;;
45842;SDS011;31563;51.744;8.252;2024-03-07T11:21:48;3.05;;;2.80;;
45842;SDS011;31563;51.744;8.252;2024-03-07T11:24:22;2.63;;;2.35;;
45842;SDS011;31563;51.744;8.252;2024-03-07T11:26:52;2.72;;;2.53;;
45842;SDS011;31563;51.744;8.252;2024-03-07T11:29:38;2.70;;;2.50;;
45842;SDS011;31563;51.744;8.252;2024-03-07T11:32:09;2.78;;;2.58;;
45842;SDS011;31563;51.744;8.252;2024-03-07T11:34:39;2.97;;;2.40;;
45842;SDS011;31563;51.744;8.252;2024-03-07T11:37:10;2.42;;;2.22;;
45842;SDS011;31563;51.744;8.252;2024-03-07T11:39:44;2.70;;;2.45;;
45842;SDS011;31563;51.744;8.252;2024-03-07T11:42:23;2.65;;;2.45;;
45842;SDS011;31563;51.744;8.252;2024-03-07T11:44:57;2.97;;;2.78;;
45842;SDS011;31563;51.744;8.252;2024-03-07T11:47:26;2.53;;;2.33;;
45842;SDS011;31563;51.744;8.252;2024-03-07T11:50:05;2.55;;;2.35;;
45842;SDS011;31563;51.744;8.252;2024-03-07T11:52:39;2.80;;;2.60;;
45842;SDS011;31563;51.744;8.252;2024-03-07T11:55:08;2.70;;;2.50;;
45842;SDS011;31563;51.744;8.252;2024-03-07T11:57:38;3.65;;;2.80;;
45842;SDS011;31563;51.744;8.252;2024-03-07T12:00:10;2.50;;;2.30;;
45842;SDS011;31563;51.744;8.252;2024-03-07T12:02:41;2.63;;;2.42;;
45842;SDS011;31563;51.744;8.252;2024-03-07T12:05:10;2.33;;;2.13;;
45842;SDS011;31563;51.744;8.252;2024-03-07T12:07:44;2.85;;;2.65;;
45842;SDS011;31563;51.744;8.252;2024-03-07T12:10:13;2.50;;;2.30;;
45842;SDS011;31563;51.744;8.252;2024-03-07T12:12:42;2.92;;;2.72;;
45842;SDS011;31563;51.744;8.252;2024-03-07T12:15:10;2.72;;;2.53;;
45842;SDS011;31563;51.744;8.252;2024-03-07T12:17:46;2.47;;;2.28;;
45842;SDS011;31563;51.744;8.252;2024-03-07T12:20:16;2.70;;;2.50;;
45842;SDS011;31563;51.744;8.252;2024-03-07T12:22:58;2.50;;;2.30;;
45842;SDS011;31563;51.744;8.252;2024-03-07T12:25:29;2.88;;;2.65;;
45842;SDS011;31563;51.744;8.252;2024-03-07T12:27:59;2.67;;;2.47;;
45842;SDS011;31563;51.744;8.252;2024-03-07T12:30:35;2.20;;;2.00;;
45842;SDS011;31563;51.744;8.252;2024-03-07T12:33:05;3.00;;;2.50;;
45842;SDS011;31563;51.744;8.252;2024-03-07T12:35:35;2.30;;;2.10;;
45842;SDS011;31563;51.744;8.252;2024-03-07T12:38:05;2.75;;;2.42;;
45842;SDS011;31563;51.744;8.252;2024-03-07T12:40:33;2.72;;;2.53;;
45842;SDS011;31563;51.744;8.252;2024-03-07T12:43:12;2.67;;;2.47;;
45842;SDS011;31563;51.744;8.252;2024-03-07T12:45:42;2.63;;;2.42;;
45842;SDS011;31563;51.744;8.252;2024-03-07T12:48:11;2.50;;;2.30;;
45842;SDS011;31563;51.744;8.252;2024-03-07T12:50:41;2.58;;;2.38;;
45842;SDS011;31563;51.744;8.252;2024-03-07T12:53:10;2.88;;;2.67;;
45842;SDS011;31563;51.744;8.252;2024-03-07T12:58:08;2.50;;;2.30;;
45842;SDS011;31563;51.744;8.252;2024-03-07T13:00:38;2.50;;;2.30;;
45842;SDS011;31563;51.744;8.252;2024-03-07T13:03:08;2.63;;;2.42;;
45842;SDS011;31563;51.744;8.252;2024-03-07T13:05:37;2.58;;;2.38;;
45842;SDS011;31563;51.744;8.252;2024-03-07T13:08:07;2.90;;;2.70;;
45842;SDS011;31563;51.744;8.252;2024-03-07T13:10:39;2.47;;;2.28;;
45842;SDS011;31563;51.744;8.252;2024-03-07T13:13:09;2.50;;;2.13;;
45842;SDS011;31563;51.744;8.252;2024-03-07T13:15:37;2.27;;;2.10;;
45842;SDS011;31563;51.744;8.252;2024-03-07T13:18:06;2.30;;;2.10;;
45842;SDS011;31563;51.744;8.252;2024-03-07T13:20:35;2.13;;;1.98;;
45842;SDS011;31563;51.744;8.252;2024-03-07T13:23:03;2.70;;;2.40;;
45842;SDS011;31563;51.744;8.252;2024-03-07T13:25:32;2.50;;;2.30;;
45842;SDS011;31563;51.744;8.252;2024-03-07T13:28:02;2.58;;;2.38;;
45842;SDS011;31563;51.744;8.252;2024-03-07T13:30:34;3.10;;;2.80;;
45842;SDS011;31563;51.744;8.252;2024-03-07T13:33:02;2.25;;;2.05;;
45842;SDS011;31563;51.744;8.252;2024-03-07T13:35:32;2.60;;;2.28;;
45842;SDS011;31563;51.744;8.252;2024-03-07T13:38:00;2.33;;;2.13;;
45842;SDS011;31563;51.744;8.252;2024-03-07T13:40:28;2.35;;;2.15;;
45842;SDS011;31563;51.744;8.252;2024-03-07T13:42:57;2.47;;;2.28;;
45842;SDS011;31563;51.744;8.252;2024-03-07T13:45:28;2.38;;;2.17;;
45842;SDS011;31563;51.744;8.252;2024-03-07T13:47:58;2.75;;;2.42;;
45842;SDS011;31563;51.744;8.252;2024-03-07T13:50:27;2.60;;;2.40;;
45842;SDS011;31563;51.744;8.252;2024-03-07T13:53:19;2.70;;;2.50;;
45842;SDS011;31563;51.744;8.252;2024-03-07T14:02:16;2.63;;;2.42;;
45842;SDS011;31563;51.744;8.252;2024-03-07T14:05:11;2.67;;;2.47;;
45842;SDS011;31563;51.744;8.252;2024-03-07T14:08:00;2.58;;;2.38;;
45842;SDS011;31563;51.744;8.252;2024-03-07T14:14:03;2.67;;;2.38;;
45842;SDS011;31563;51.744;8.252;2024-03-07T14:16:52;2.60;;;2.40;;
45842;SDS011;31563;51.744;8.252;2024-03-07T14:23:10;2.55;;;2.33;;
45842;SDS011;31563;51.744;8.252;2024-03-07T14:25:54;2.97;;;2.67;;
45842;SDS011;31563;51.744;8.252;2024-03-07T14:28:48;2.50;;;2.30;;
45842;SDS011;31563;51.744;8.252;2024-03-07T14:31:22;2.72;;;2.53;;
45842;SDS011;31563;51.744;8.252;2024-03-07T14:33:54;2.40;;;2.20;;
45842;SDS011;31563;51.744;8.252;2024-03-07T14:36:33;2.35;;;2.15;;
45842;SDS011;31563;51.744;8.252;2024-03-07T14:39:07;2.83;;;2.63;;
45842;SDS011;31563;51.744;8.252;2024-03-07T14:41:43;2.53;;;2.33;;
45842;SDS011;31563;51.744;8.252;2024-03-07T14:44:14;2.78;;;2.30;;
45842;SDS011;31563;51.744;8.252;2024-03-07T14:46:43;2.60;;;2.40;;
45842;SDS011;31563;51.744;8.252;2024-03-07T14:49:14;2.45;;;2.25;;
45842;SDS011;31563;51.744;8.252;2024-03-07T14:51:44;2.30;;;2.10;;
45842;SDS011;31563;51.744;8.252;2024-03-07T14:54:26;2.38;;;2.17;;
45842;SDS011;31563;51.744;8.252;2024-03-07T14:56:55;2.20;;;2.00;;
45842;SDS011;31563;51.744;8.252;2024-03-07T14:59:23;2.50;;;2.30;;
45842;SDS011;31563;51.744;8.252;2024-03-07T15:01:52;2.90;;;2.63;;
45842;SDS011;31563;51.744;8.252;2024-03-07T15:04:22;2.60;;;2.40;;
45842;SDS011;31563;51.744;8.252;2024-03-07T15:06:50;2.58;;;2.38;;
45842;SDS011;31563;51.744;8.252;2024-03-07T15:09:23;3.03;;;2.60;;
45842;SDS011;31563;51.744;8.252;2024-03-07T15:11:58;2.55;;;2.35;;
45842;SDS011;31563;51.744;8.252;2024-03-07T15:17:04;2.85;;;2.55;;
45842;SDS011;31563;51.744;8.252;2024-03-07T15:19:33;2.65;;;2.45;;
45842;SDS011;31563;51.744;8.252;2024-03-07T15:22:02;2.33;;;2.13;;
45842;SDS011;31563;51.744;8.252;2024-03-07T15:24:33;3.10;;;2.80;;
45842;SDS011;31563;51.744;8.252;2024-03-07T15:27:04;3.10;;;2.80;;
45842;SDS011;31563;51.744;8.252;2024-03-07T15:29:33;2.92;;;2.67;;
45842;SDS011;31563;51.744;8.252;2024-03-07T15:32:03;2.75;;;2.55;;
45842;SDS011;31563;51.744;8.252;2024-03-07T15:34:35;3.28;;;2.72;;
45842;SDS011;31563;51.744;8.252;2024-03-07T15:37:04;2.70;;;2.30;;